Flight Track Log - Related Links

Times and Time Zones

All times are in EDT time to prevent confusion due to time zone crossing. See the DAL6197 flight status page for this flight to view local times or setup timezone preferences in your user account.

Time Position Orientation Groundspeed Altitude Reporting Facility
EDT Latitude Longitude Course Direction KTS km/h feet Rate Location/Type
Tue 12:11:54 42.9333 -78.7500 180° South 158 293 1,700  Level Buffalo TRACON
Tue 12:13:00 42.8833 -78.7500 180° South 183 340 4,700 2,523 Climbing Buffalo TRACON
Tue 12:14:50 42.8744 -78.5831 94° East 248 459 9,100 2,329 Climbing Cleveland Center
Tue 12:15:50 42.8681 -78.4672 94° East 287 531 11,300 2,100 Climbing Cleveland Center
Tue 12:16:50 42.8614 -78.3286 94° East 331 613 13,300 2,000 Climbing Cleveland Center
Tue 12:17:50 42.8542 -78.1814 94° East 366 678 15,300 1,900 Climbing Cleveland Center
Tue 12:18:50 42.8492 -78.0486 93° East 381 705 17,100 1,800 Climbing Cleveland Center
Tue 12:19:50 42.8417 -77.8931 94° East 393 727 18,900 1,750 Climbing Cleveland Center
Tue 12:20:50 42.8336 -77.7350 94° East 406 752 20,600 1,700 Climbing Cleveland Center
Tue 12:21:50 42.8317 -77.5708 91° East 418 774 22,300 1,600 Climbing Cleveland Center
Tue 12:22:50 42.8272 -77.4067 92° East 423 784 23,800 1,088 Climbing Cleveland Center
Tue 12:24:52 42.8214 -77.0578 91° East 459 850 25,600 923 Climbing Boston Center
Tue 12:25:52 42.7819 -76.8964 108° East 453 838 26,600 1,000 Climbing Boston Center
Tue 12:26:52 42.7128 -76.7444 122° Southeast 453 838 27,600 1,210 Climbing Boston Center
Tue 12:27:51 42.6542 -76.5878 117° Southeast 460 851 29,000 700 Climbing Boston Center
Tue 12:28:52 42.6292 -76.4083 101° East 460 851 29,000  Level Boston Center
Tue 12:29:52 42.6044 -76.2147 100° East 466 863 29,000  Level Boston Center
Tue 12:30:52 42.5789 -76.0383 101° East 471 872 29,000  Level Boston Center
Tue 12:31:52 42.5550 -75.8678 101° East 471 872 29,000 -50 Level Boston Center
Tue 12:32:52 42.5331 -75.6947 100° East 471 872 28,900 -750 Descending Boston Center
Tue 12:33:52 42.5086 -75.5214 101° East 471 872 27,500 -1,350 Descending Boston Center
Tue 12:34:52 42.4836 -75.3681 102° East 471 872 26,200 -1,300 Descending Boston Center
Tue 12:35:52 42.4500 -75.2061 106° East 460 851 24,900 -1,300 Descending Boston Center
Tue 12:36:52 42.3972 -75.0575 116° Southeast 443 821 23,600 -1,311 Descending Boston Center
Tue 12:37:51 42.3442 -74.9122 116° Southeast 431 798 22,300 -1,300 Descending Boston Center
Tue 12:38:52 42.2931 -74.7725 116° Southeast 426 789 21,000 -1,289 Descending Boston Center
Tue 12:39:52 42.2417 -74.6303 116° Southeast 420 777 19,700 -1,300 Descending Boston Center
Tue 12:40:52 42.1900 -74.4969 118° Southeast 409 758 18,400 -850 Descending Boston Center
Tue 12:41:52 42.1403 -74.3581 116° Southeast 384 711 18,000 -200 Descending Boston Center
Tue 12:42:52 42.0961 -74.2503 119° Southeast 348 644 18,000  Level Boston Center
Tue 12:43:51 42.0458 -74.1456 123° Southeast 333 616 18,000  Level Boston Center
Tue 12:44:52 41.9931 -74.0433 125° Southeast 328 607 18,000 -300 Level Boston Center
Tue 12:45:51 41.9422 -73.9417 124° Southeast 334 618 17,400 -908 Descending Boston Center
Tue 12:46:51 41.8956 -73.8486 124° Southeast 334 618 16,200 -1,136 Descending Boston Center
Tue 12:48:03 41.8106 -73.8217 167° South 287 531 14,900 -1,263 Descending Boston Center
Tue 12:49:04 41.7106 -73.8222 180° South 298 552 13,400 -1,190 Descending Boston Center
Tue 12:50:04 41.6375 -73.8317 186° South 303 562 12,500 -1,097 Descending Boston Center
Tue 12:50:37 41.5833 -73.8500 194° South 294 544 11,700 -1,161 Descending New York TRACON
Tue 12:51:37 41.5000 -73.8667 189° South 291 539 10,700 -1,000 Descending New York TRACON
Tue 12:52:37 41.4333 -73.8667 180° South 286 529 9,700 -1,286 Descending New York TRACON
Tue 12:53:43 41.3500 -73.8167 156° South 279 517 8,000 -1,450 Descending New York TRACON
Tue 12:54:37 41.3000 -73.7667 143° Southeast 262 486 6,800 -1,400 Descending New York TRACON
Tue 12:55:43 41.2333 -73.7000 143° Southeast 261 483 5,200 -1,048 Descending New York TRACON
Tue 12:56:43 41.1833 -73.6500 143° Southeast 252 467 4,600 -600 Descending New York TRACON
Tue 12:57:43 41.1167 -73.6000 151° Southeast 258 478 4,000 -300 Descending New York TRACON
Tue 12:58:43 41.0500 -73.6500 209° Southwest 275 509 4,000  Level New York TRACON
Tue 12:59:44 41.0000 -73.7167 225° Southwest 272 504 4,000  Level New York TRACON
Tue 13:00:44 40.9667 -73.8000 242° Southwest 280 518 4,000  Level New York TRACON
Tue 13:01:44 40.9167 -73.8833 232° Southwest 276 512 4,000  Level New York TRACON
Tue 13:02:44 40.8500 -73.9167 201° Southwest 265 491 4,000  Level New York TRACON
Tue 13:03:44 40.7833 -73.9667 210° Southwest 268 496 4,000  Level New York TRACON
Tue 13:04:44 40.7167 -74.0167 210° Southwest 257 476 4,000  Level New York TRACON
Tue 13:05:38 40.6833 -74.0667 229° Southwest 204 378 4,000  Level New York TRACON
Tue 13:06:38 40.6333 -74.1000 207° Southwest 199 369 4,000 -450 Level New York TRACON
Tue 13:07:38 40.6000 -74.1000 180° South 200 370 3,100 -496 Descending New York TRACON
Tue 13:08:39 40.6167 -74.0333 72° East 164 304 3,000 -50 Descending New York TRACON
Tue 13:09:39 40.6333 -74.0000 57° Northeast 164 304 3,000  Level New York TRACON

Login

Don't have an account? Register now (free) for customized features, flight alerts, and more!